Airfield :
LOGIN :

Register | Disclaimer

   EN    FR    IT 

 










Legend :    VFR   Marginal VFR   IFR   Intensive IFR   Very Intensive IFR
Visi :
Ceiling :
>= 8 km
>= 3000ft
5 to 8 km
1000 to 3000 ft
1500m to 5 km
500 to 1000 ft
800 to 1500m
200 to 500 ft
< 800m
< 200 ft
Symbols :   Thunderstorms  Fog  Heavy snow  Heavy precipitations  Wind > 20 kt
SIGMETs :     Misc.  Thunderstorms  Icing  Turbulence  Mountain Waves  Volcanic Ashes






- Airport Elevation : 870 ft
- IATA code : ETZ


LFJL - Metz Nancy Lorraine

CURRENT METAR :
  • 021500Z AUTO 26013KT 9999 BKN019 OVC024 06/04 Q1029 BECMG OVC013

EXPIRED METARs :
  • 021430Z AUTO 26012KT 9999 OVC022 07/04 Q1029 BECMG OVC013
  • 021400Z AUTO 25013KT 9999 BKN020 OVC027 07/04 Q1029 BECMG OVC013
  • 021330Z AUTO 25012KT 9999 SCT016 OVC027 07/04 Q1029 BECMG OVC013
  • 021300Z AUTO 25012KT 9999 FEW009 BKN014 OVC019 06/04 Q1029 TEMPO BKN020
  • 021230Z AUTO 25013KT 5000 DZ BR BKN010 OVC016 06/05 Q1029 TEMPO BKN020 BECMG NSW

TAF TAF LFJL
Valid from the 02 at 12:00 until the 03 at 12:00 UTC


021100Z 0212/0312 26012KT 9999 OVC013
PROB40 0213/0219 BKN020
BECMG 0219/0221 OVC008
PROB40
TEMPO 0221/0307 2500 -DZRA OVC003
BECMG 0310/0312 BKN013



MET'MAP, your aeronautical weather chart ! - Copyright ORBIFLY December 2007 - Disclaimer

ORBIFLY MET'MAP TEAM :

Programming & Development : Alexandra Zaïnal
Original concept : Baudouin d'Aumeries
Technical & hardware support : Manuel Goepfert
Assistance : Marc-Olivier Méhu




SOURCES & CREDITS :

   NOAA